sensor_id;sensor_type;location;lat;lon;timestamp;P1;durP1;ratioP1;P2;durP2;ratioP2
40591;SDS011;26301;42.832;23.918;2023-09-18T00:00:46;19.02;;;12.52;;
40591;SDS011;26301;42.832;23.918;2023-09-18T00:03:19;20.00;;;12.50;;
40591;SDS011;26301;42.832;23.918;2023-09-18T00:05:48;16.33;;;12.32;;
40591;SDS011;26301;42.832;23.918;2023-09-18T00:08:14;20.98;;;11.85;;
40591;SDS011;26301;42.832;23.918;2023-09-18T00:10:40;18.20;;;12.10;;
40591;SDS011;26301;42.832;23.918;2023-09-18T00:13:07;20.95;;;11.55;;
40591;SDS011;26301;42.832;23.918;2023-09-18T00:15:32;16.73;;;11.55;;
40591;SDS011;26301;42.832;23.918;2023-09-18T00:17:58;18.65;;;11.57;;
40591;SDS011;26301;42.832;23.918;2023-09-18T00:20:24;13.57;;;11.38;;
40591;SDS011;26301;42.832;23.918;2023-09-18T00:22:54;14.48;;;10.00;;
40591;SDS011;26301;42.832;23.918;2023-09-18T00:25:20;16.70;;;10.52;;
40591;SDS011;26301;42.832;23.918;2023-09-18T00:27:52;16.80;;;11.25;;
40591;SDS011;26301;42.832;23.918;2023-09-18T00:49:04;13.68;;;9.68;;
40591;SDS011;26301;42.832;23.918;2023-09-18T00:52:14;16.95;;;10.68;;
40591;SDS011;26301;42.832;23.918;2023-09-18T00:59:35;15.50;;;10.25;;
40591;SDS011;26301;42.832;23.918;2023-09-18T01:06:02;22.65;;;10.55;;
40591;SDS011;26301;42.832;23.918;2023-09-18T01:09:16;14.68;;;10.20;;
40591;SDS011;26301;42.832;23.918;2023-09-18T01:16:02;19.27;;;10.63;;
40591;SDS011;26301;42.832;23.918;2023-09-18T01:19:01;16.58;;;11.07;;
40591;SDS011;26301;42.832;23.918;2023-09-18T01:21:49;15.68;;;10.63;;
40591;SDS011;26301;42.832;23.918;2023-09-18T01:28:26;17.83;;;9.65;;
40591;SDS011;26301;42.832;23.918;2023-09-18T01:35:43;14.95;;;9.82;;
40591;SDS011;26301;42.832;23.918;2023-09-18T01:39:04;12.00;;;8.98;;
40591;SDS011;26301;42.832;23.918;2023-09-18T02:12:56;15.20;;;10.68;;
40591;SDS011;26301;42.832;23.918;2023-09-18T02:30:18;15.27;;;10.80;;
40591;SDS011;26301;42.832;23.918;2023-09-18T02:33:42;16.52;;;10.05;;
40591;SDS011;26301;42.832;23.918;2023-09-18T02:43:31;15.25;;;11.10;;
40591;SDS011;26301;42.832;23.918;2023-09-18T02:46:34;18.30;;;10.93;;
40591;SDS011;26301;42.832;23.918;2023-09-18T02:53:51;17.48;;;10.52;;
40591;SDS011;26301;42.832;23.918;2023-09-18T02:56:49;16.35;;;11.38;;
40591;SDS011;26301;42.832;23.918;2023-09-18T03:07:20;16.95;;;10.35;;
40591;SDS011;26301;42.832;23.918;2023-09-18T03:10:42;20.58;;;10.88;;
40591;SDS011;26301;42.832;23.918;2023-09-18T03:13:59;21.45;;;10.82;;
40591;SDS011;26301;42.832;23.918;2023-09-18T03:32:22;13.95;;;10.68;;
40591;SDS011;26301;42.832;23.918;2023-09-18T03:56:21;9.85;;;8.45;;
40591;SDS011;26301;42.832;23.918;2023-09-18T03:59:53;14.32;;;10.45;;
40591;SDS011;26301;42.832;23.918;2023-09-18T04:10:14;14.23;;;10.75;;
40591;SDS011;26301;42.832;23.918;2023-09-18T04:17:01;18.33;;;10.77;;
40591;SDS011;26301;42.832;23.918;2023-09-18T04:47:10;13.98;;;12.57;;
40591;SDS011;26301;42.832;23.918;2023-09-18T04:57:09;15.32;;;11.43;;
40591;SDS011;26301;42.832;23.918;2023-09-18T05:34:42;14.98;;;13.35;;
40591;SDS011;26301;42.832;23.918;2023-09-18T05:55:50;14.65;;;12.65;;
40591;SDS011;26301;42.832;23.918;2023-09-18T05:59:01;15.57;;;13.07;;
40591;SDS011;26301;42.832;23.918;2023-09-18T06:05:24;13.18;;;11.65;;
40591;SDS011;26301;42.832;23.918;2023-09-18T06:08:45;13.25;;;11.13;;
40591;SDS011;26301;42.832;23.918;2023-09-18T06:12:07;19.77;;;14.10;;
40591;SDS011;26301;42.832;23.918;2023-09-18T06:25:49;11.60;;;10.50;;
40591;SDS011;26301;42.832;23.918;2023-09-18T06:28:06;15.15;;;11.50;;
40591;SDS011;26301;42.832;23.918;2023-09-18T06:30:32;11.38;;;9.63;;
40591;SDS011;26301;42.832;23.918;2023-09-18T06:32:58;16.20;;;10.00;;
40591;SDS011;26301;42.832;23.918;2023-09-18T06:35:24;12.43;;;8.98;;
40591;SDS011;26301;42.832;23.918;2023-09-18T06:37:50;9.60;;;8.55;;
40591;SDS011;26301;42.832;23.918;2023-09-18T06:40:16;11.07;;;9.73;;
40591;SDS011;26301;42.832;23.918;2023-09-18T06:42:42;11.63;;;9.45;;
40591;SDS011;26301;42.832;23.918;2023-09-18T06:45:08;17.30;;;9.25;;
40591;SDS011;26301;42.832;23.918;2023-09-18T06:47:34;9.90;;;8.82;;
40591;SDS011;26301;42.832;23.918;2023-09-18T06:49:59;14.40;;;8.05;;
40591;SDS011;26301;42.832;23.918;2023-09-18T06:52:25;12.38;;;9.23;;
40591;SDS011;26301;42.832;23.918;2023-09-18T06:54:53;9.52;;;8.35;;
40591;SDS011;26301;42.832;23.918;2023-09-18T06:57:19;8.50;;;7.38;;
40591;SDS011;26301;42.832;23.918;2023-09-18T06:59:46;13.10;;;9.48;;
40591;SDS011;26301;42.832;23.918;2023-09-18T07:02:12;9.38;;;7.53;;
40591;SDS011;26301;42.832;23.918;2023-09-18T07:04:41;9.25;;;8.20;;
40591;SDS011;26301;42.832;23.918;2023-09-18T07:07:13;10.60;;;8.05;;
40591;SDS011;26301;42.832;23.918;2023-09-18T07:09:40;10.38;;;8.30;;
40591;SDS011;26301;42.832;23.918;2023-09-18T07:12:07;9.18;;;7.45;;
40591;SDS011;26301;42.832;23.918;2023-09-18T07:14:34;11.63;;;7.55;;
40591;SDS011;26301;42.832;23.918;2023-09-18T07:17:01;10.38;;;7.68;;
40591;SDS011;26301;42.832;23.918;2023-09-18T07:19:27;11.43;;;6.80;;
40591;SDS011;26301;42.832;23.918;2023-09-18T07:21:53;10.45;;;6.95;;
40591;SDS011;26301;42.832;23.918;2023-09-18T07:24:18;11.63;;;7.40;;
40591;SDS011;26301;42.832;23.918;2023-09-18T07:26:46;10.48;;;8.40;;
40591;SDS011;26301;42.832;23.918;2023-09-18T07:29:13;12.10;;;8.48;;
40591;SDS011;26301;42.832;23.918;2023-09-18T07:31:41;16.50;;;7.75;;
40591;SDS011;26301;42.832;23.918;2023-09-18T07:34:07;9.93;;;7.70;;
40591;SDS011;26301;42.832;23.918;2023-09-18T07:36:33;8.50;;;6.97;;
40591;SDS011;26301;42.832;23.918;2023-09-18T07:38:59;9.82;;;7.47;;
40591;SDS011;26301;42.832;23.918;2023-09-18T07:41:24;11.27;;;6.32;;
40591;SDS011;26301;42.832;23.918;2023-09-18T07:43:50;11.43;;;6.93;;
40591;SDS011;26301;42.832;23.918;2023-09-18T07:46:16;10.13;;;6.47;;
40591;SDS011;26301;42.832;23.918;2023-09-18T07:48:42;10.35;;;7.20;;
40591;SDS011;26301;42.832;23.918;2023-09-18T07:51:11;12.50;;;6.95;;
40591;SDS011;26301;42.832;23.918;2023-09-18T07:53:37;10.20;;;6.72;;
40591;SDS011;26301;42.832;23.918;2023-09-18T07:56:02;8.68;;;6.82;;
40591;SDS011;26301;42.832;23.918;2023-09-18T07:58:30;9.32;;;6.97;;
40591;SDS011;26301;42.832;23.918;2023-09-18T08:00:56;9.00;;;7.63;;
40591;SDS011;26301;42.832;23.918;2023-09-18T08:03:23;11.75;;;7.32;;
40591;SDS011;26301;42.832;23.918;2023-09-18T08:05:50;10.25;;;6.97;;
40591;SDS011;26301;42.832;23.918;2023-09-18T08:08:17;8.05;;;6.70;;
40591;SDS011;26301;42.832;23.918;2023-09-18T08:10:45;9.15;;;6.75;;
40591;SDS011;26301;42.832;23.918;2023-09-18T08:13:11;9.63;;;6.78;;
40591;SDS011;26301;42.832;23.918;2023-09-18T08:15:37;11.23;;;6.53;;
40591;SDS011;26301;42.832;23.918;2023-09-18T08:18:03;9.27;;;6.72;;
40591;SDS011;26301;42.832;23.918;2023-09-18T08:20:28;9.68;;;6.95;;
40591;SDS011;26301;42.832;23.918;2023-09-18T08:22:55;9.57;;;7.10;;
40591;SDS011;26301;42.832;23.918;2023-09-18T08:25:21;9.68;;;6.90;;
40591;SDS011;26301;42.832;23.918;2023-09-18T08:27:47;10.95;;;6.88;;
40591;SDS011;26301;42.832;23.918;2023-09-18T08:30:13;9.27;;;6.93;;
40591;SDS011;26301;42.832;23.918;2023-09-18T08:32:40;11.98;;;7.22;;
40591;SDS011;26301;42.832;23.918;2023-09-18T08:35:07;7.93;;;6.60;;
40591;SDS011;26301;42.832;23.918;2023-09-18T08:37:33;9.05;;;6.47;;
40591;SDS011;26301;42.832;23.918;2023-09-18T08:39:59;12.68;;;6.78;;
40591;SDS011;26301;42.832;23.918;2023-09-18T08:42:34;12.13;;;6.63;;
40591;SDS011;26301;42.832;23.918;2023-09-18T08:45:04;9.73;;;6.80;;
40591;SDS011;26301;42.832;23.918;2023-09-18T08:47:37;13.23;;;6.78;;
40591;SDS011;26301;42.832;23.918;2023-09-18T08:50:05;7.22;;;5.88;;
40591;SDS011;26301;42.832;23.918;2023-09-18T08:52:34;9.13;;;6.35;;
40591;SDS011;26301;42.832;23.918;2023-09-18T08:55:00;8.65;;;6.40;;
40591;SDS011;26301;42.832;23.918;2023-09-18T08:57:27;8.15;;;6.07;;
40591;SDS011;26301;42.832;23.918;2023-09-18T08:59:55;8.43;;;5.97;;
40591;SDS011;26301;42.832;23.918;2023-09-18T09:02:22;10.35;;;6.35;;
40591;SDS011;26301;42.832;23.918;2023-09-18T09:04:47;8.63;;;6.13;;
40591;SDS011;26301;42.832;23.918;2023-09-18T09:07:13;7.90;;;5.82;;
40591;SDS011;26301;42.832;23.918;2023-09-18T09:09:39;9.88;;;5.35;;
40591;SDS011;26301;42.832;23.918;2023-09-18T09:12:07;7.50;;;5.88;;
40591;SDS011;26301;42.832;23.918;2023-09-18T09:14:33;10.20;;;6.10;;
40591;SDS011;26301;42.832;23.918;2023-09-18T09:16:58;7.13;;;6.15;;
40591;SDS011;26301;42.832;23.918;2023-09-18T09:19:31;13.40;;;6.55;;
40591;SDS011;26301;42.832;23.918;2023-09-18T09:22:00;9.25;;;5.72;;
40591;SDS011;26301;42.832;23.918;2023-09-18T09:24:39;10.30;;;5.90;;
40591;SDS011;26301;42.832;23.918;2023-09-18T09:27:07;9.20;;;6.43;;
40591;SDS011;26301;42.832;23.918;2023-09-18T09:29:33;9.43;;;6.15;;
40591;SDS011;26301;42.832;23.918;2023-09-18T09:34:58;13.15;;;6.50;;
40591;SDS011;26301;42.832;23.918;2023-09-18T09:37:30;8.50;;;6.47;;
40591;SDS011;26301;42.832;23.918;2023-09-18T09:39:56;10.32;;;6.72;;
40591;SDS011;26301;42.832;23.918;2023-09-18T09:42:22;6.97;;;6.28;;
40591;SDS011;26301;42.832;23.918;2023-09-18T09:45:01;10.23;;;6.50;;
40591;SDS011;26301;42.832;23.918;2023-09-18T09:47:32;8.27;;;5.80;;
40591;SDS011;26301;42.832;23.918;2023-09-18T09:49:58;7.53;;;6.10;;
40591;SDS011;26301;42.832;23.918;2023-09-18T09:52:33;8.75;;;6.22;;
40591;SDS011;26301;42.832;23.918;2023-09-18T09:54:59;12.02;;;6.60;;
40591;SDS011;26301;42.832;23.918;2023-09-18T09:57:24;9.23;;;6.60;;
40591;SDS011;26301;42.832;23.918;2023-09-18T09:59:50;10.27;;;7.05;;
40591;SDS011;26301;42.832;23.918;2023-09-18T10:02:15;8.20;;;6.57;;
40591;SDS011;26301;42.832;23.918;2023-09-18T10:04:47;9.43;;;6.93;;
40591;SDS011;26301;42.832;23.918;2023-09-18T10:07:14;8.98;;;6.50;;
40591;SDS011;26301;42.832;23.918;2023-09-18T10:09:43;9.93;;;7.18;;
40591;SDS011;26301;42.832;23.918;2023-09-18T10:12:11;7.43;;;6.57;;
40591;SDS011;26301;42.832;23.918;2023-09-18T10:14:40;8.07;;;6.80;;
40591;SDS011;26301;42.832;23.918;2023-09-18T10:17:17;8.13;;;6.60;;
40591;SDS011;26301;42.832;23.918;2023-09-18T10:22:39;13.18;;;6.65;;
40591;SDS011;26301;42.832;23.918;2023-09-18T10:25:13;8.38;;;5.85;;
40591;SDS011;26301;42.832;23.918;2023-09-18T10:27:43;10.57;;;6.63;;
40591;SDS011;26301;42.832;23.918;2023-09-18T10:30:11;12.10;;;6.53;;
40591;SDS011;26301;42.832;23.918;2023-09-18T10:32:39;7.45;;;6.30;;
40591;SDS011;26301;42.832;23.918;2023-09-18T10:35:06;12.35;;;7.53;;
40591;SDS011;26301;42.832;23.918;2023-09-18T10:37:37;10.85;;;6.43;;
40591;SDS011;26301;42.832;23.918;2023-09-18T10:40:04;9.45;;;6.40;;
40591;SDS011;26301;42.832;23.918;2023-09-18T10:42:33;9.88;;;6.45;;
40591;SDS011;26301;42.832;23.918;2023-09-18T10:45:01;9.00;;;6.70;;
40591;SDS011;26301;42.832;23.918;2023-09-18T10:47:29;9.57;;;7.43;;
40591;SDS011;26301;42.832;23.918;2023-09-18T10:49:56;10.43;;;7.78;;
40591;SDS011;26301;42.832;23.918;2023-09-18T10:52:22;9.77;;;6.72;;
40591;SDS011;26301;42.832;23.918;2023-09-18T10:54:48;12.70;;;6.40;;
40591;SDS011;26301;42.832;23.918;2023-09-18T10:57:13;10.48;;;7.75;;
40591;SDS011;26301;42.832;23.918;2023-09-18T10:59:43;8.20;;;6.43;;
40591;SDS011;26301;42.832;23.918;2023-09-18T11:02:15;7.38;;;6.55;;
40591;SDS011;26301;42.832;23.918;2023-09-18T11:04:42;8.43;;;6.10;;
40591;SDS011;26301;42.832;23.918;2023-09-18T11:07:19;10.25;;;6.20;;
40591;SDS011;26301;42.832;23.918;2023-09-18T11:09:45;8.27;;;6.88;;
40591;SDS011;26301;42.832;23.918;2023-09-18T11:12:11;7.35;;;5.80;;
40591;SDS011;26301;42.832;23.918;2023-09-18T11:22:55;9.93;;;6.60;;
40591;SDS011;26301;42.832;23.918;2023-09-18T11:25:37;8.18;;;5.57;;
40591;SDS011;26301;42.832;23.918;2023-09-18T11:30:50;9.93;;;6.00;;
40591;SDS011;26301;42.832;23.918;2023-09-18T11:33:41;10.93;;;5.47;;
40591;SDS011;26301;42.832;23.918;2023-09-18T11:36:15;10.10;;;5.53;;
40591;SDS011;26301;42.832;23.918;2023-09-18T11:38:57;7.53;;;5.20;;
40591;SDS011;26301;42.832;23.918;2023-09-18T11:41:28;8.15;;;5.13;;
40591;SDS011;26301;42.832;23.918;2023-09-18T11:46:35;6.32;;;5.55;;
40591;SDS011;26301;42.832;23.918;2023-09-18T11:49:05;7.75;;;5.15;;
40591;SDS011;26301;42.832;23.918;2023-09-18T11:51:36;10.13;;;6.07;;
40591;SDS011;26301;42.832;23.918;2023-09-18T11:54:02;8.35;;;5.55;;
40591;SDS011;26301;42.832;23.918;2023-09-18T11:56:30;8.32;;;5.90;;
40591;SDS011;26301;42.832;23.918;2023-09-18T11:58:57;6.85;;;4.53;;
40591;SDS011;26301;42.832;23.918;2023-09-18T12:01:24;6.97;;;5.55;;
40591;SDS011;26301;42.832;23.918;2023-09-18T12:03:55;7.63;;;4.97;;
40591;SDS011;26301;42.832;23.918;2023-09-18T12:06:26;6.75;;;5.15;;
40591;SDS011;26301;42.832;23.918;2023-09-18T12:08:52;6.18;;;5.00;;
40591;SDS011;26301;42.832;23.918;2023-09-18T12:11:19;6.85;;;4.68;;
40591;SDS011;26301;42.832;23.918;2023-09-18T12:13:46;6.93;;;5.35;;
40591;SDS011;26301;42.832;23.918;2023-09-18T12:16:13;9.27;;;5.10;;
40591;SDS011;26301;42.832;23.918;2023-09-18T12:18:44;6.90;;;4.95;;
40591;SDS011;26301;42.832;23.918;2023-09-18T12:21:13;9.65;;;5.30;;
40591;SDS011;26301;42.832;23.918;2023-09-18T12:23:41;9.65;;;5.30;;
40591;SDS011;26301;42.832;23.918;2023-09-18T12:26:09;6.35;;;4.60;;
40591;SDS011;26301;42.832;23.918;2023-09-18T12:28:38;6.82;;;5.15;;
40591;SDS011;26301;42.832;23.918;2023-09-18T12:31:14;10.52;;;4.95;;
40591;SDS011;26301;42.832;23.918;2023-09-18T12:33:49;6.50;;;4.90;;
40591;SDS011;26301;42.832;23.918;2023-09-18T12:43:27;8.25;;;4.85;;
40591;SDS011;26301;42.832;23.918;2023-09-18T12:49:19;7.70;;;4.88;;
40591;SDS011;26301;42.832;23.918;2023-09-18T12:52:07;9.52;;;5.95;;
40591;SDS011;26301;42.832;23.918;2023-09-18T13:02:05;9.07;;;4.57;;
40591;SDS011;26301;42.832;23.918;2023-09-18T13:05:27;6.07;;;4.60;;
40591;SDS011;26301;42.832;23.918;2023-09-18T13:08:16;7.20;;;4.97;;
40591;SDS011;26301;42.832;23.918;2023-09-18T13:11:27;10.05;;;4.63;;
40591;SDS011;26301;42.832;23.918;2023-09-18T13:21:56;7.43;;;5.00;;
40591;SDS011;26301;42.832;23.918;2023-09-18T13:45:06;7.75;;;4.43;;
40591;SDS011;26301;42.832;23.918;2023-09-18T13:48:04;5.97;;;5.07;;
40591;SDS011;26301;42.832;23.918;2023-09-18T13:51:26;5.45;;;4.15;;
40591;SDS011;26301;42.832;23.918;2023-09-18T14:04:18;5.25;;;4.28;;
40591;SDS011;26301;42.832;23.918;2023-09-18T14:07:16;7.03;;;4.55;;
40591;SDS011;26301;42.832;23.918;2023-09-18T14:09:52;8.77;;;4.88;;
40591;SDS011;26301;42.832;23.918;2023-09-18T14:12:41;5.95;;;4.15;;
40591;SDS011;26301;42.832;23.918;2023-09-18T14:22:03;6.63;;;4.30;;
40591;SDS011;26301;42.832;23.918;2023-09-18T14:38:22;7.20;;;4.55;;
40591;SDS011;26301;42.832;23.918;2023-09-18T14:51:24;5.40;;;3.55;;
40591;SDS011;26301;42.832;23.918;2023-09-18T15:00:59;6.47;;;4.38;;
40591;SDS011;26301;42.832;23.918;2023-09-18T15:07:41;9.18;;;4.53;;
40591;SDS011;26301;42.832;23.918;2023-09-18T15:21:34;6.00;;;3.95;;
40591;SDS011;26301;42.832;23.918;2023-09-18T15:28:02;7.10;;;3.83;;
40591;SDS011;26301;42.832;23.918;2023-09-18T15:31:04;12.13;;;4.43;;
40591;SDS011;26301;42.832;23.918;2023-09-18T15:34:20;10.27;;;4.30;;
40591;SDS011;26301;42.832;23.918;2023-09-18T15:37:36;7.43;;;4.05;;
40591;SDS011;26301;42.832;23.918;2023-09-18T15:43:42;7.82;;;4.68;;
40591;SDS011;26301;42.832;23.918;2023-09-18T15:56:37;9.02;;;4.38;;
40591;SDS011;26301;42.832;23.918;2023-09-18T16:05:34;8.88;;;4.85;;
40591;SDS011;26301;42.832;23.918;2023-09-18T16:07:59;10.15;;;5.28;;
40591;SDS011;26301;42.832;23.918;2023-09-18T16:10:28;13.43;;;5.40;;
40591;SDS011;26301;42.832;23.918;2023-09-18T16:12:53;8.50;;;4.97;;
40591;SDS011;26301;42.832;23.918;2023-09-18T16:15:19;10.02;;;5.00;;
40591;SDS011;26301;42.832;23.918;2023-09-18T16:17:45;10.27;;;4.75;;
40591;SDS011;26301;42.832;23.918;2023-09-18T16:20:11;10.07;;;4.72;;
40591;SDS011;26301;42.832;23.918;2023-09-18T16:22:36;8.02;;;5.43;;
40591;SDS011;26301;42.832;23.918;2023-09-18T16:25:02;9.38;;;5.07;;
40591;SDS011;26301;42.832;23.918;2023-09-18T16:27:28;10.65;;;4.95;;
40591;SDS011;26301;42.832;23.918;2023-09-18T16:29:54;8.60;;;5.25;;
40591;SDS011;26301;42.832;23.918;2023-09-18T16:32:20;9.45;;;5.22;;
40591;SDS011;26301;42.832;23.918;2023-09-18T16:34:46;8.23;;;5.30;;
40591;SDS011;26301;42.832;23.918;2023-09-18T16:37:13;9.20;;;5.03;;
40591;SDS011;26301;42.832;23.918;2023-09-18T16:39:40;8.25;;;5.50;;
40591;SDS011;26301;42.832;23.918;2023-09-18T16:42:07;12.32;;;5.70;;
40591;SDS011;26301;42.832;23.918;2023-09-18T16:44:32;12.95;;;5.78;;
40591;SDS011;26301;42.832;23.918;2023-09-18T16:46:58;15.77;;;5.40;;
40591;SDS011;26301;42.832;23.918;2023-09-18T16:49:24;9.27;;;5.53;;
40591;SDS011;26301;42.832;23.918;2023-09-18T16:51:49;9.32;;;5.55;;
40591;SDS011;26301;42.832;23.918;2023-09-18T16:54:15;10.48;;;6.00;;
40591;SDS011;26301;42.832;23.918;2023-09-18T16:56:43;10.75;;;5.30;;
40591;SDS011;26301;42.832;23.918;2023-09-18T16:59:08;6.97;;;5.43;;
40591;SDS011;26301;42.832;23.918;2023-09-18T17:01:44;8.80;;;5.93;;
40591;SDS011;26301;42.832;23.918;2023-09-18T17:04:30;8.32;;;5.50;;
40591;SDS011;26301;42.832;23.918;2023-09-18T17:06:59;10.70;;;5.65;;
40591;SDS011;26301;42.832;23.918;2023-09-18T17:09:27;10.27;;;5.63;;
40591;SDS011;26301;42.832;23.918;2023-09-18T17:11:53;10.40;;;5.50;;
40591;SDS011;26301;42.832;23.918;2023-09-18T17:14:21;11.45;;;5.80;;
40591;SDS011;26301;42.832;23.918;2023-09-18T17:17:07;10.15;;;6.03;;
40591;SDS011;26301;42.832;23.918;2023-09-18T17:19:32;9.02;;;5.63;;
40591;SDS011;26301;42.832;23.918;2023-09-18T17:25:12;6.03;;;4.78;;
40591;SDS011;26301;42.832;23.918;2023-09-18T17:27:59;8.38;;;5.45;;
40591;SDS011;26301;42.832;23.918;2023-09-18T17:30:35;9.35;;;5.45;;
40591;SDS011;26301;42.832;23.918;2023-09-18T17:33:00;6.20;;;5.32;;
40591;SDS011;26301;42.832;23.918;2023-09-18T17:35:30;9.93;;;4.97;;
40591;SDS011;26301;42.832;23.918;2023-09-18T17:38:12;10.57;;;5.00;;
40591;SDS011;26301;42.832;23.918;2023-09-18T17:40:49;12.52;;;5.32;;
40591;SDS011;26301;42.832;23.918;2023-09-18T17:43:21;7.82;;;5.15;;
40591;SDS011;26301;42.832;23.918;2023-09-18T17:46:16;12.90;;;4.93;;
40591;SDS011;26301;42.832;23.918;2023-09-18T17:48:49;12.75;;;4.95;;
40591;SDS011;26301;42.832;23.918;2023-09-18T17:51:34;6.68;;;4.97;;
40591;SDS011;26301;42.832;23.918;2023-09-18T17:54:05;8.40;;;4.70;;
40591;SDS011;26301;42.832;23.918;2023-09-18T17:56:34;9.80;;;4.97;;
40591;SDS011;26301;42.832;23.918;2023-09-18T17:59:00;10.30;;;4.75;;
40591;SDS011;26301;42.832;23.918;2023-09-18T18:01:43;8.63;;;4.78;;
40591;SDS011;26301;42.832;23.918;2023-09-18T18:04:16;9.60;;;4.55;;
40591;SDS011;26301;42.832;23.918;2023-09-18T18:06:48;9.25;;;4.47;;
40591;SDS011;26301;42.832;23.918;2023-09-18T18:09:28;10.68;;;4.93;;
40591;SDS011;26301;42.832;23.918;2023-09-18T18:12:04;7.90;;;4.72;;
40591;SDS011;26301;42.832;23.918;2023-09-18T18:14:38;7.05;;;4.68;;
40591;SDS011;26301;42.832;23.918;2023-09-18T18:20:13;9.60;;;4.68;;
40591;SDS011;26301;42.832;23.918;2023-09-18T18:22:41;7.05;;;3.97;;
40591;SDS011;26301;42.832;23.918;2023-09-18T18:25:07;7.00;;;4.55;;
40591;SDS011;26301;42.832;23.918;2023-09-18T18:30:32;16.92;;;4.53;;
40591;SDS011;26301;42.832;23.918;2023-09-18T18:33:54;9.65;;;4.32;;
40591;SDS011;26301;42.832;23.918;2023-09-18T18:36:29;9.67;;;4.50;;
40591;SDS011;26301;42.832;23.918;2023-09-18T18:45:58;10.25;;;5.15;;
40591;SDS011;26301;42.832;23.918;2023-09-18T18:49:51;8.88;;;4.97;;
40591;SDS011;26301;42.832;23.918;2023-09-18T18:56:05;7.85;;;4.05;;
40591;SDS011;26301;42.832;23.918;2023-09-18T19:02:20;7.90;;;4.43;;
40591;SDS011;26301;42.832;23.918;2023-09-18T19:05:21;9.68;;;4.70;;
40591;SDS011;26301;42.832;23.918;2023-09-18T19:11:30;10.00;;;6.03;;
40591;SDS011;26301;42.832;23.918;2023-09-18T19:14:28;8.00;;;5.07;;
40591;SDS011;26301;42.832;23.918;2023-09-18T19:23:55;12.23;;;6.45;;
40591;SDS011;26301;42.832;23.918;2023-09-18T19:30:25;9.95;;;6.53;;
40591;SDS011;26301;42.832;23.918;2023-09-18T19:39:22;9.60;;;6.68;;
40591;SDS011;26301;42.832;23.918;2023-09-18T19:45:02;10.35;;;6.97;;
40591;SDS011;26301;42.832;23.918;2023-09-18T19:51:25;11.88;;;7.40;;
40591;SDS011;26301;42.832;23.918;2023-09-18T19:57:05;11.07;;;7.28;;
40591;SDS011;26301;42.832;23.918;2023-09-18T19:59:52;11.57;;;7.57;;
40591;SDS011;26301;42.832;23.918;2023-09-18T20:02:23;11.23;;;6.97;;
40591;SDS011;26301;42.832;23.918;2023-09-18T20:05:20;12.30;;;6.90;;
40591;SDS011;26301;42.832;23.918;2023-09-18T20:18:40;11.82;;;6.57;;
40591;SDS011;26301;42.832;23.918;2023-09-18T20:22:03;8.65;;;5.85;;
40591;SDS011;26301;42.832;23.918;2023-09-18T20:25:09;8.52;;;6.72;;
40591;SDS011;26301;42.832;23.918;2023-09-18T20:27:59;10.80;;;6.25;;
40591;SDS011;26301;42.832;23.918;2023-09-18T20:31:06;9.13;;;6.72;;
40591;SDS011;26301;42.832;23.918;2023-09-18T20:36:46;7.03;;;6.30;;
40591;SDS011;26301;42.832;23.918;2023-09-18T20:39:14;7.50;;;6.30;;
40591;SDS011;26301;42.832;23.918;2023-09-18T20:41:47;9.30;;;6.97;;
40591;SDS011;26301;42.832;23.918;2023-09-18T20:44:13;9.35;;;6.80;;
40591;SDS011;26301;42.832;23.918;2023-09-18T20:46:41;9.35;;;6.00;;
40591;SDS011;26301;42.832;23.918;2023-09-18T20:49:15;8.95;;;6.82;;
40591;SDS011;26301;42.832;23.918;2023-09-18T20:52:24;10.05;;;6.55;;
40591;SDS011;26301;42.832;23.918;2023-09-18T20:55:07;8.88;;;6.07;;
40591;SDS011;26301;42.832;23.918;2023-09-18T20:57:33;11.05;;;7.03;;
40591;SDS011;26301;42.832;23.918;2023-09-18T20:59:59;9.07;;;6.80;;
40591;SDS011;26301;42.832;23.918;2023-09-18T21:02:24;10.45;;;6.78;;
40591;SDS011;26301;42.832;23.918;2023-09-18T21:04:50;7.97;;;6.85;;
40591;SDS011;26301;42.832;23.918;2023-09-18T21:07:16;14.10;;;7.63;;
40591;SDS011;26301;42.832;23.918;2023-09-18T21:09:44;14.77;;;7.32;;
40591;SDS011;26301;42.832;23.918;2023-09-18T21:12:11;13.13;;;7.03;;
40591;SDS011;26301;42.832;23.918;2023-09-18T21:14:37;8.82;;;7.00;;
40591;SDS011;26301;42.832;23.918;2023-09-18T21:17:03;9.10;;;7.35;;
40591;SDS011;26301;42.832;23.918;2023-09-18T21:19:29;12.57;;;7.68;;
40591;SDS011;26301;42.832;23.918;2023-09-18T21:22:04;10.30;;;7.47;;
40591;SDS011;26301;42.832;23.918;2023-09-18T21:50:02;10.70;;;6.90;;
40591;SDS011;26301;42.832;23.918;2023-09-18T21:59:50;9.95;;;6.50;;
40591;SDS011;26301;42.832;23.918;2023-09-18T22:06:33;9.50;;;6.53;;
40591;SDS011;26301;42.832;23.918;2023-09-18T22:13:47;10.27;;;6.00;;
40591;SDS011;26301;42.832;23.918;2023-09-18T22:16:49;7.13;;;5.63;;
40591;SDS011;26301;42.832;23.918;2023-09-18T22:20:19;10.60;;;5.80;;
40591;SDS011;26301;42.832;23.918;2023-09-18T22:23:20;7.28;;;6.05;;
40591;SDS011;26301;42.832;23.918;2023-09-18T22:36:02;8.75;;;5.65;;
40591;SDS011;26301;42.832;23.918;2023-09-18T23:16:06;9.05;;;6.32;;
40591;SDS011;26301;42.832;23.918;2023-09-18T23:18:54;13.52;;;6.70;;
40591;SDS011;26301;42.832;23.918;2023-09-18T23:28:21;7.90;;;6.78;;
40591;SDS011;26301;42.832;23.918;2023-09-18T23:35:01;10.05;;;7.57;;
40591;SDS011;26301;42.832;23.918;2023-09-18T23:38:26;9.75;;;6.80;;
40591;SDS011;26301;42.832;23.918;2023-09-18T23:41:41;6.80;;;6.10;;
40591;SDS011;26301;42.832;23.918;2023-09-18T23:44:06;8.88;;;6.88;;
40591;SDS011;26301;42.832;23.918;2023-09-18T23:46:36;8.50;;;6.90;;
40591;SDS011;26301;42.832;23.918;2023-09-18T23:49:03;8.77;;;6.47;;
40591;SDS011;26301;42.832;23.918;2023-09-18T23:51:29;11.07;;;6.82;;
40591;SDS011;26301;42.832;23.918;2023-09-18T23:53:55;10.02;;;6.72;;
